Time;durP1;ratioP1;P1;durP2;ratioP2;P2;SDS_P1;SDS_P2;PMS_P1;PMS_P2;Temp;Humidity;BMP_temperature;BMP_pressure;BME280_temperature;BME280_humidity;BME280_pressure;Samples;Min_cycle;Max_cycle;Signal;HPM_P1;HPM_P2
2023/06/23 00:01:00;;;;;;;0.00;0.00;;;19.40;99.90;;;;;;5053358;28;20185;-68
2023/06/23 00:03:26;;;;;;;0.00;0.00;;;19.40;99.90;;;;;;5051925;28;20656;-68
2023/06/23 00:05:52;;;;;;;0.00;0.00;;;19.40;99.90;;;;;;5053912;28;20531;-67
2023/06/23 00:08:17;;;;;;;0.00;0.00;;;19.40;99.90;;;;;;5053644;28;20209;-68
2023/06/23 00:10:43;;;;;;;0.00;0.00;;;19.40;99.90;;;;;;5053982;28;20211;-68
2023/06/23 00:13:10;;;;;;;0.08;0.08;;;19.30;99.90;;;;;;5053804;28;20193;-68
2023/06/23 00:15:35;;;;;;;0.00;0.00;;;19.40;99.90;;;;;;5053524;28;20176;-68
2023/06/23 00:18:01;;;;;;;1.33;1.00;;;19.40;99.90;;;;;;5053651;28;20181;-68
2023/06/23 00:20:27;;;;;;;0.00;0.00;;;19.40;99.90;;;;;;5054786;28;20190;-68
2023/06/23 00:22:52;;;;;;;0.00;0.00;;;19.40;99.90;;;;;;5053185;28;20195;-68
2023/06/23 00:25:18;;;;;;;0.00;0.00;;;19.30;99.90;;;;;;5053213;28;20192;-68
2023/06/23 00:27:46;;;;;;;0.00;0.00;;;19.30;99.90;;;;;;5052817;28;20233;-68
2023/06/23 00:30:13;;;;;;;0.00;0.00;;;19.40;99.90;;;;;;5053528;28;20188;-68
2023/06/23 00:32:40;;;;;;;0.00;0.00;;;19.30;99.90;;;;;;5053349;28;20602;-68
2023/06/23 00:35:08;;;;;;;0.00;0.00;;;19.30;99.90;;;;;;5052636;28;20223;-67
2023/06/23 00:37:37;;;;;;;0.00;0.00;;;19.30;99.90;;;;;;5052575;28;20187;-68
2023/06/23 00:40:04;;;;;;;0.00;0.00;;;19.30;99.90;;;;;;5053445;28;20180;-68
2023/06/23 00:42:30;;;;;;;0.05;0.05;;;19.30;99.90;;;;;;5053139;28;20178;-68
2023/06/23 00:44:57;;;;;;;0.00;0.00;;;19.30;99.90;;;;;;5049862;28;20181;-68
2023/06/23 00:47:24;;;;;;;0.00;0.00;;;19.20;99.90;;;;;;5051730;28;20209;-68
2023/06/23 00:49:50;;;;;;;0.00;0.00;;;19.20;99.90;;;;;;5053088;28;20193;-68
2023/06/23 00:52:16;;;;;;;0.00;0.00;;;19.20;99.90;;;;;;5053192;28;20182;-68
2023/06/23 00:54:42;;;;;;;0.00;0.00;;;19.20;99.90;;;;;;5053233;28;20173;-66
2023/06/23 00:57:10;;;;;;;0.00;0.00;;;19.20;99.90;;;;;;5053204;28;20184;-66
2023/06/23 00:59:36;;;;;;;0.00;0.00;;;19.10;99.90;;;;;;5052507;28;20728;-66
2023/06/23 01:02:02;;;;;;;0.00;0.00;;;19.10;99.90;;;;;;5053146;28;20264;-66
2023/06/23 01:04:33;;;;;;;0.00;0.00;;;19.00;99.90;;;;;;5052803;28;20210;-65
2023/06/23 01:07:30;;;;;;;0.00;0.00;;;19.00;99.90;;;;;;5051305;28;20248;-66
2023/06/23 01:10:08;;;;;;;0.00;0.00;;;18.90;99.90;;;;;;5052555;28;20165;-66
2023/06/23 01:12:50;;;;;;;0.00;0.00;;;18.90;99.90;;;;;;5052505;28;20739;-66
2023/06/23 01:15:39;;;;;;;0.00;0.00;;;18.90;99.90;;;;;;5051426;28;20181;-66
2023/06/23 01:18:22;;;;;;;0.10;0.10;;;18.90;99.90;;;;;;5052378;28;20223;-65
2023/06/23 01:20:49;;;;;;;0.00;0.00;;;18.80;99.90;;;;;;5052512;28;20718;-65
2023/06/23 01:23:36;;;;;;;0.00;0.00;;;18.70;99.90;;;;;;5052201;28;20174;-65
2023/06/23 01:26:26;;;;;;;0.00;0.00;;;18.70;99.90;;;;;;5051610;28;20252;-66
2023/06/23 01:29:09;;;;;;;0.00;0.00;;;18.60;99.90;;;;;;5051895;28;20556;-66
2023/06/23 01:31:53;;;;;;;0.00;0.00;;;18.50;99.90;;;;;;5051935;28;20518;-66
2023/06/23 01:34:23;;;;;;;0.00;0.00;;;18.40;99.90;;;;;;5051126;28;20169;-66
2023/06/23 01:37:01;;;;;;;0.00;0.00;;;18.30;99.90;;;;;;5052283;28;20734;-66
2023/06/23 01:39:31;;;;;;;0.00;0.00;;;18.20;99.90;;;;;;5052667;28;20213;-66
2023/06/23 01:42:03;;;;;;;0.08;0.03;;;18.10;99.90;;;;;;5051758;28;20224;-69
2023/06/23 01:44:30;;;;;;;0.00;0.00;;;18.00;99.90;;;;;;5052100;28;20660;-68
2023/06/23 01:46:59;;;;;;;0.00;0.00;;;17.90;99.90;;;;;;5046892;28;20668;-66
2023/06/23 01:49:30;;;;;;;0.00;0.00;;;17.80;99.90;;;;;;5051079;28;20209;-66
2023/06/23 01:51:56;;;;;;;0.00;0.00;;;17.80;99.90;;;;;;5044031;28;20595;-66
2023/06/23 01:54:24;;;;;;;0.00;0.00;;;17.70;99.90;;;;;;5051864;28;20177;-66
2023/06/23 01:56:51;;;;;;;0.00;0.00;;;17.60;99.90;;;;;;5050718;28;20177;-66
2023/06/23 01:59:19;;;;;;;0.20;0.20;;;17.60;99.90;;;;;;5051795;28;20170;-66
2023/06/23 02:01:46;;;;;;;0.00;0.00;;;17.50;99.90;;;;;;5052005;28;20170;-66
2023/06/23 02:04:13;;;;;;;0.00;0.00;;;17.50;99.90;;;;;;5051762;28;20184;-65
2023/06/23 02:06:40;;;;;;;0.00;0.00;;;17.40;99.90;;;;;;5051727;28;20243;-65
2023/06/23 02:09:10;;;;;;;0.00;0.00;;;17.40;99.90;;;;;;5051709;28;20205;-66
2023/06/23 02:11:36;;;;;;;0.00;0.00;;;17.40;99.90;;;;;;5050584;28;20190;-66
2023/06/23 02:14:03;;;;;;;0.17;0.17;;;17.40;99.90;;;;;;5050221;28;20532;-66
2023/06/23 02:16:32;;;;;;;0.10;0.10;;;17.40;99.90;;;;;;5051447;28;20270;-66
2023/06/23 02:18:59;;;;;;;0.10;0.10;;;17.30;99.90;;;;;;5051474;28;20192;-66
2023/06/23 02:21:26;;;;;;;0.00;0.00;;;17.40;99.90;;;;;;5051300;28;20188;-67
2023/06/23 02:23:54;;;;;;;0.00;0.00;;;17.30;99.90;;;;;;5051176;28;20192;-66
2023/06/23 02:26:22;;;;;;;0.00;0.00;;;17.30;99.90;;;;;;5051038;28;20207;-66
2023/06/23 02:28:50;;;;;;;0.00;0.00;;;17.30;99.90;;;;;;5051065;28;20177;-67
2023/06/23 02:31:22;;;;;;;0.00;0.00;;;17.40;99.90;;;;;;5050457;28;20170;-67
2023/06/23 02:33:48;;;;;;;0.00;0.00;;;17.30;99.90;;;;;;5045374;28;20196;-66
2023/06/23 02:36:19;;;;;;;0.00;0.00;;;17.30;99.90;;;;;;5050604;28;20615;-66
2023/06/23 02:38:47;;;;;;;0.00;0.00;;;17.30;99.90;;;;;;5050438;28;20181;-66
2023/06/23 02:41:17;;;;;;;0.00;0.00;;;17.30;99.90;;;;;;5050444;28;20182;-66
2023/06/23 02:43:51;;;;;;;0.00;0.00;;;17.20;99.90;;;;;;5049684;28;20191;-66
2023/06/23 02:46:19;;;;;;;0.70;0.50;;;17.30;99.90;;;;;;5045551;28;20182;-66
2023/06/23 02:48:48;;;;;;;0.00;0.00;;;17.30;99.90;;;;;;5048994;28;20181;-66
2023/06/23 02:51:18;;;;;;;0.00;0.00;;;17.30;99.90;;;;;;5050487;28;20516;-66
2023/06/23 02:53:55;;;;;;;0.08;0.08;;;17.30;99.90;;;;;;5049982;28;20185;-66
2023/06/23 02:56:25;;;;;;;0.03;0.03;;;17.30;99.90;;;;;;5050663;28;20655;-67
2023/06/23 02:58:53;;;;;;;0.00;0.00;;;17.30;99.90;;;;;;5050397;28;20224;-67
2023/06/23 03:01:22;;;;;;;0.00;0.00;;;17.30;99.90;;;;;;5050142;28;20177;-67
2023/06/23 03:03:49;;;;;;;0.00;0.00;;;17.30;99.90;;;;;;5049676;28;20186;-67
2023/06/23 03:06:22;;;;;;;0.52;0.52;;;17.30;99.90;;;;;;5049217;28;20286;-66
2023/06/23 03:08:48;;;;;;;0.00;0.00;;;17.40;99.90;;;;;;5050333;28;20174;-66
2023/06/23 03:11:18;;;;;;;0.00;0.00;;;17.50;99.90;;;;;;5049891;28;20174;-66
2023/06/23 03:13:44;;;;;;;0.20;0.20;;;17.60;99.90;;;;;;5044375;28;20188;-67
2023/06/23 03:16:25;;;;;;;0.00;0.00;;;17.70;99.90;;;;;;5048387;28;20169;-67
2023/06/23 03:19:04;;;;;;;0.10;0.10;;;17.70;99.90;;;;;;5049833;28;20184;-67
2023/06/23 03:21:32;;;;;;;0.00;0.00;;;17.80;99.90;;;;;;5049953;28;20185;-67
2023/06/23 03:23:59;;;;;;;0.85;0.10;;;17.80;99.90;;;;;;5049452;28;20547;-66
2023/06/23 03:26:28;;;;;;;0.00;0.00;;;18.00;99.90;;;;;;5049013;28;20275;-67
2023/06/23 03:28:58;;;;;;;0.00;0.00;;;18.00;99.90;;;;;;5050063;28;20185;-67
2023/06/23 03:31:26;;;;;;;0.00;0.00;;;18.10;99.90;;;;;;5050156;28;20216;-67
2023/06/23 03:33:53;;;;;;;0.00;0.00;;;18.10;99.90;;;;;;5048752;28;20181;-64
2023/06/23 03:36:24;;;;;;;0.00;0.00;;;18.20;99.90;;;;;;5049099;28;20189;-61
2023/06/23 03:38:59;;;;;;;0.00;0.00;;;18.20;99.90;;;;;;5048908;28;20181;-65
2023/06/23 03:41:28;;;;;;;0.00;0.00;;;18.10;99.90;;;;;;5049798;28;20173;-63
2023/06/23 03:44:01;;;;;;;0.10;0.00;;;18.00;99.90;;;;;;5050224;28;20545;-63
2023/06/23 03:46:40;;;;;;;0.00;0.00;;;18.00;99.90;;;;;;5048515;28;20177;-66
2023/06/23 03:49:10;;;;;;;0.00;0.00;;;17.90;99.90;;;;;;5049228;28;20722;-64
2023/06/23 03:51:36;;;;;;;0.20;0.20;;;18.10;99.90;;;;;;5039688;28;20169;-65
2023/06/23 03:54:04;;;;;;;0.10;0.05;;;18.20;99.90;;;;;;5049848;28;20181;-65
2023/06/23 03:56:33;;;;;;;0.00;0.00;;;18.30;99.90;;;;;;5048745;28;20279;-63
2023/06/23 03:59:02;;;;;;;0.15;0.15;;;18.30;99.90;;;;;;5048875;28;20186;-59
2023/06/23 04:01:30;;;;;;;0.00;0.00;;;18.20;99.90;;;;;;5048857;28;20194;-60
2023/06/23 04:03:57;;;;;;;0.00;0.00;;;18.30;99.90;;;;;;5049428;28;20728;-62
2023/06/23 04:06:25;;;;;;;0.00;0.00;;;18.20;99.90;;;;;;5047825;28;20181;-62
2023/06/23 04:08:54;;;;;;;0.00;0.00;;;18.30;99.90;;;;;;5049092;28;20196;-62
2023/06/23 04:11:21;;;;;;;0.30;0.30;;;18.20;99.90;;;;;;5045266;28;20193;-63
2023/06/23 04:13:49;;;;;;;0.10;0.10;;;18.10;99.90;;;;;;5049676;28;20185;-63
2023/06/23 04:16:16;;;;;;;0.10;0.10;;;18.20;99.90;;;;;;5049690;28;20178;-63
2023/06/23 04:18:43;;;;;;;0.00;0.00;;;18.20;99.90;;;;;;5067118;28;20172;-63
2023/06/23 04:21:11;;;;;;;0.00;0.00;;;18.10;99.90;;;;;;5051009;28;20533;-63
2023/06/23 04:23:39;;;;;;;0.00;0.00;;;18.10;99.90;;;;;;5049606;28;20221;-63
2023/06/23 04:26:08;;;;;;;0.00;0.00;;;18.10;99.90;;;;;;5049853;28;20751;-63
2023/06/23 04:28:35;;;;;;;0.05;0.05;;;18.00;99.90;;;;;;5048358;28;20224;-63
2023/06/23 04:31:06;;;;;;;0.00;0.00;;;18.00;99.90;;;;;;5049975;28;20227;-63
2023/06/23 04:33:31;;;;;;;0.32;0.32;;;17.90;99.90;;;;;;5049734;28;20184;-63
2023/06/23 04:36:09;;;;;;;0.00;0.00;;;17.90;99.90;;;;;;5053353;28;20189;-63
2023/06/23 04:38:37;;;;;;;0.08;0.08;;;18.00;99.90;;;;;;5053409;28;20196;-63
2023/06/23 04:41:07;;;;;;;0.50;0.50;;;18.10;99.90;;;;;;5053498;28;20639;-63
2023/06/23 04:43:38;;;;;;;0.00;0.00;;;18.10;99.90;;;;;;5053282;28;20181;-63
2023/06/23 04:46:14;;;;;;;0.00;0.00;;;18.10;99.90;;;;;;5053296;28;20186;-63
2023/06/23 04:48:45;;;;;;;0.00;0.00;;;18.10;99.90;;;;;;5053139;28;20208;-63
2023/06/23 04:51:13;;;;;;;0.00;0.00;;;18.10;99.90;;;;;;5052940;28;20762;-63
2023/06/23 04:53:49;;;;;;;0.10;0.10;;;18.00;99.90;;;;;;5052923;28;20213;-63
2023/06/23 04:56:19;;;;;;;0.08;0.08;;;18.00;99.90;;;;;;5052941;28;20200;-63
2023/06/23 04:58:52;;;;;;;0.22;0.20;;;18.00;99.90;;;;;;5052789;28;20174;-63
2023/06/23 05:01:19;;;;;;;0.05;0.05;;;18.00;99.90;;;;;;5052945;28;20192;-63
2023/06/23 05:03:48;;;;;;;0.08;0.08;;;18.00;99.90;;;;;;5052826;28;20170;-63
2023/06/23 05:06:17;;;;;;;0.03;0.03;;;18.00;99.90;;;;;;5052581;28;20252;-63
2023/06/23 05:08:45;;;;;;;0.00;0.00;;;18.00;99.90;;;;;;5052700;28;20208;-63
2023/06/23 05:11:12;;;;;;;0.05;0.05;;;18.00;99.90;;;;;;5052675;28;20250;-62
2023/06/23 05:13:39;;;;;;;0.20;0.20;;;18.00;99.90;;;;;;5052387;28;20176;-63
2023/06/23 05:16:10;;;;;;;0.00;0.00;;;17.90;99.90;;;;;;5052749;28;20308;-63
2023/06/23 05:18:36;;;;;;;0.00;0.00;;;17.90;99.90;;;;;;5052610;28;20227;-63
2023/06/23 05:21:04;;;;;;;0.00;0.00;;;18.00;99.90;;;;;;5052596;28;20181;-63
2023/06/23 05:23:35;;;;;;;0.10;0.10;;;18.00;99.90;;;;;;5052305;28;20288;-64
2023/06/23 05:26:03;;;;;;;0.00;0.00;;;18.20;99.90;;;;;;5051119;28;20185;-64
2023/06/23 05:28:32;;;;;;;0.05;0.05;;;18.30;99.90;;;;;;5052343;28;20223;-64
2023/06/23 05:31:00;;;;;;;0.00;0.00;;;18.40;99.90;;;;;;5052644;28;20632;-64
2023/06/23 05:33:28;;;;;;;0.32;0.30;;;18.40;99.90;;;;;;5052505;28;20199;-64
2023/06/23 05:35:54;;;;;;;0.15;0.15;;;18.50;99.90;;;;;;5052426;28;20705;-64
2023/06/23 05:38:22;;;;;;;0.00;0.00;;;18.60;99.90;;;;;;5052467;28;20687;-64
2023/06/23 05:40:47;;;;;;;0.43;0.43;;;18.90;99.90;;;;;;5052470;28;20317;-63
2023/06/23 05:43:13;;;;;;;0.00;0.00;;;19.40;99.90;;;;;;5052352;28;20625;-63
2023/06/23 05:45:39;;;;;;;0.10;0.10;;;19.80;99.90;;;;;;5052240;28;20659;-63
2023/06/23 05:48:23;;;;;;;0.10;0.10;;;20.10;99.90;;;;;;5052199;28;20224;-64
2023/06/23 05:50:49;;;;;;;0.32;0.22;;;20.40;99.90;;;;;;5051957;28;20177;-64
2023/06/23 05:53:20;;;;;;;0.20;0.20;;;20.20;99.90;;;;;;5052228;28;20220;-63
2023/06/23 05:56:10;;;;;;;0.00;0.00;;;20.10;99.90;;;;;;5050751;28;20180;-63
2023/06/23 05:58:40;;;;;;;0.17;0.17;;;20.30;99.90;;;;;;5052180;28;20680;-64
2023/06/23 06:01:09;;;;;;;0.08;0.08;;;20.20;99.90;;;;;;5051903;28;20178;-63
2023/06/23 06:03:42;;;;;;;0.00;0.00;;;20.10;99.90;;;;;;5051757;28;21255;-63
2023/06/23 06:06:09;;;;;;;0.15;0.15;;;19.90;99.90;;;;;;5051871;28;20187;-63
2023/06/23 06:08:37;;;;;;;0.00;0.00;;;19.80;99.90;;;;;;5051635;28;20213;-63
2023/06/23 06:11:04;;;;;;;0.20;0.20;;;19.70;99.90;;;;;;5051760;28;20539;-63
2023/06/23 06:13:34;;;;;;;0.00;0.00;;;19.70;99.90;;;;;;5051661;28;20212;-63
2023/06/23 06:16:00;;;;;;;0.10;0.10;;;19.60;99.90;;;;;;5051654;28;20180;-63
2023/06/23 06:18:26;;;;;;;0.00;0.00;;;19.50;99.90;;;;;;5051578;28;20579;-63
2023/06/23 06:20:54;;;;;;;0.00;0.00;;;19.50;99.90;;;;;;5051335;28;20173;-62
2023/06/23 06:23:21;;;;;;;0.17;0.17;;;19.60;99.90;;;;;;5051573;28;20788;-63
2023/06/23 06:25:49;;;;;;;0.00;0.00;;;20.10;99.90;;;;;;5051105;28;20708;-62
2023/06/23 06:28:16;;;;;;;0.10;0.10;;;20.60;99.90;;;;;;5051427;28;20252;-62
2023/06/23 06:30:42;;;;;;;0.25;0.25;;;20.70;99.90;;;;;;5051235;28;20182;-62
2023/06/23 06:33:11;;;;;;;0.13;0.13;;;21.20;99.90;;;;;;5051541;28;20166;-62
2023/06/23 06:35:37;;;;;;;0.00;0.00;;;21.10;99.90;;;;;;5050995;28;20545;-62
2023/06/23 06:38:05;;;;;;;0.13;0.13;;;21.00;99.90;;;;;;5050992;28;20224;-62
2023/06/23 06:40:31;;;;;;;0.00;0.00;;;21.00;99.90;;;;;;5051059;28;20173;-63
2023/06/23 06:42:56;;;;;;;0.03;0.03;;;21.30;99.90;;;;;;5051082;28;20178;-62
2023/06/23 06:45:22;;;;;;;0.05;0.05;;;21.30;99.90;;;;;;5051062;28;20180;-62
2023/06/23 06:47:49;;;;;;;0.00;0.00;;;21.00;99.90;;;;;;5034414;28;20555;-62
2023/06/23 06:50:16;;;;;;;0.00;0.00;;;20.80;99.90;;;;;;5031104;28;20182;-62
2023/06/23 06:52:43;;;;;;;0.10;0.10;;;20.50;99.90;;;;;;5031122;28;20162;-62
2023/06/23 06:55:19;;;;;;;0.25;0.25;;;20.50;99.90;;;;;;5031096;28;20166;-62
2023/06/23 06:57:47;;;;;;;0.15;0.15;;;20.70;99.90;;;;;;5030379;28;20186;-62
2023/06/23 07:00:15;;;;;;;0.00;0.00;;;20.90;99.90;;;;;;5030932;28;20660;-63
2023/06/23 07:02:43;;;;;;;0.00;0.00;;;20.90;99.90;;;;;;5031093;28;20209;-62
2023/06/23 07:05:09;;;;;;;0.00;0.00;;;21.10;99.90;;;;;;5031195;28;20197;-62
2023/06/23 07:07:34;;;;;;;0.00;0.00;;;21.50;99.90;;;;;;5031244;28;20248;-63
2023/06/23 07:10:00;;;;;;;0.00;0.00;;;21.70;99.90;;;;;;5031235;28;20548;-62
2023/06/23 07:12:25;;;;;;;0.00;0.00;;;21.70;99.90;;;;;;5030975;28;20177;-63
2023/06/23 07:14:51;;;;;;;0.00;0.00;;;21.70;99.90;;;;;;5030849;28;20550;-63
2023/06/23 07:17:17;;;;;;;0.00;0.00;;;21.70;99.90;;;;;;5031165;28;20185;-63
2023/06/23 07:19:42;;;;;;;0.00;0.00;;;21.50;99.90;;;;;;5030833;28;20179;-62
2023/06/23 07:22:09;;;;;;;0.17;0.17;;;21.50;99.90;;;;;;5031041;28;20186;-63
2023/06/23 07:24:34;;;;;;;0.00;0.00;;;21.50;99.90;;;;;;5030883;28;20261;-63
2023/06/23 07:27:00;;;;;;;0.00;0.00;;;21.50;99.90;;;;;;5030758;28;20688;-63
2023/06/23 07:29:25;;;;;;;0.00;0.00;;;21.70;99.90;;;;;;5031001;28;20646;-63
2023/06/23 07:31:51;;;;;;;0.00;0.00;;;22.00;99.90;;;;;;5030685;28;20605;-62
2023/06/23 07:34:17;;;;;;;0.00;0.00;;;22.20;99.90;;;;;;5031022;28;20174;-63
2023/06/23 07:36:43;;;;;;;0.00;0.00;;;22.30;99.90;;;;;;5030713;28;20253;-63
2023/06/23 07:39:09;;;;;;;0.00;0.00;;;22.30;99.90;;;;;;5030849;28;20629;-63
2023/06/23 07:41:35;;;;;;;0.00;0.00;;;22.60;99.90;;;;;;5030846;28;20170;-63
2023/06/23 07:44:01;;;;;;;0.00;0.00;;;22.60;99.90;;;;;;5030871;28;20312;-63
2023/06/23 07:46:27;;;;;;;0.00;0.00;;;22.30;99.90;;;;;;5033254;28;20186;-63
2023/06/23 07:48:52;;;;;;;0.00;0.00;;;22.20;99.90;;;;;;5050560;28;20267;-62
2023/06/23 07:51:18;;;;;;;0.10;0.10;;;22.10;99.90;;;;;;5049305;28;20181;-63
2023/06/23 07:53:44;;;;;;;0.00;0.00;;;22.00;99.90;;;;;;5050601;28;20184;-62
2023/06/23 07:56:12;;;;;;;0.47;0.47;;;22.10;99.90;;;;;;5050671;28;20512;-62
2023/06/23 07:58:38;;;;;;;0.00;0.00;;;22.30;99.90;;;;;;5050482;28;20635;-62
2023/06/23 08:01:03;;;;;;;0.00;0.00;;;22.40;99.90;;;;;;5050582;28;20177;-62
2023/06/23 08:03:29;;;;;;;0.00;0.00;;;22.60;99.90;;;;;;5050459;28;20174;-63
2023/06/23 08:05:55;;;;;;;0.20;0.20;;;22.50;99.90;;;;;;5050583;28;20643;-62
2023/06/23 08:08:20;;;;;;;0.00;0.00;;;22.40;99.90;;;;;;5050404;28;20213;-62
2023/06/23 08:10:46;;;;;;;0.00;0.00;;;22.80;99.90;;;;;;5053859;28;20256;-62
2023/06/23 08:13:11;;;;;;;0.00;0.00;;;23.20;99.90;;;;;;5054313;28;20231;-62
2023/06/23 08:15:37;;;;;;;0.00;0.00;;;23.60;99.90;;;;;;5054061;28;20174;-62
2023/06/23 08:18:02;;;;;;;0.00;0.00;;;24.20;99.90;;;;;;5054177;28;20177;-62
2023/06/23 08:20:29;;;;;;;0.10;0.10;;;24.70;99.90;;;;;;5054147;28;20209;-62
2023/06/23 08:22:54;;;;;;;0.00;0.00;;;24.80;99.50;;;;;;5053988;28;20177;-62
2023/06/23 08:25:20;;;;;;;0.00;0.00;;;24.70;99.80;;;;;;5053960;28;20223;-62
2023/06/23 08:27:45;;;;;;;0.00;0.00;;;24.50;99.10;;;;;;5053826;28;20696;-62
2023/06/23 08:30:11;;;;;;;0.00;0.00;;;24.30;98.40;;;;;;5053892;28;20178;-62
2023/06/23 08:32:37;;;;;;;0.00;0.00;;;24.00;99.20;;;;;;5053970;28;20177;-62
2023/06/23 08:35:03;;;;;;;0.10;0.10;;;23.80;99.90;;;;;;5054014;28;20633;-63
2023/06/23 08:37:28;;;;;;;0.00;0.00;;;23.80;99.90;;;;;;5053841;28;20655;-62
2023/06/23 08:39:54;;;;;;;0.00;0.00;;;23.80;99.90;;;;;;5053649;28;20176;-62
2023/06/23 08:42:20;;;;;;;0.00;0.00;;;23.50;99.90;;;;;;5053777;28;20201;-62
2023/06/23 08:44:48;;;;;;;0.00;0.00;;;23.50;99.90;;;;;;5052240;28;20250;-62
2023/06/23 08:47:17;;;;;;;0.00;0.00;;;23.90;99.90;;;;;;5049435;28;20233;-62
2023/06/23 08:49:45;;;;;;;0.17;0.17;;;24.50;99.90;;;;;;5053562;28;20200;-62
2023/06/23 08:52:11;;;;;;;0.00;0.00;;;24.70;99.30;;;;;;5053463;28;20721;-63
2023/06/23 08:54:37;;;;;;;0.00;0.00;;;24.50;98.90;;;;;;5053457;28;20185;-63
2023/06/23 08:57:04;;;;;;;0.08;0.08;;;24.30;98.70;;;;;;5053653;28;20173;-63
2023/06/23 08:59:30;;;;;;;0.00;0.00;;;24.20;99.10;;;;;;5053487;28;20178;-63
2023/06/23 09:01:56;;;;;;;0.00;0.00;;;24.20;99.10;;;;;;5053414;28;20264;-63
2023/06/23 09:04:21;;;;;;;0.00;0.00;;;23.90;98.90;;;;;;5053464;28;20265;-63
2023/06/23 09:06:47;;;;;;;0.00;0.00;;;24.00;99.70;;;;;;5053170;28;20205;-63
2023/06/23 09:09:13;;;;;;;0.00;0.00;;;24.20;99.00;;;;;;5053355;28;20205;-63
2023/06/23 09:11:38;;;;;;;0.00;0.00;;;24.70;98.50;;;;;;5053171;28;20656;-63
2023/06/23 09:14:06;;;;;;;0.00;0.00;;;25.20;96.80;;;;;;5053173;28;20174;-63
2023/06/23 09:16:32;;;;;;;0.00;0.00;;;25.20;95.90;;;;;;5053002;28;20454;-63
2023/06/23 09:19:00;;;;;;;0.00;0.00;;;24.90;95.30;;;;;;5053260;28;20176;-63
2023/06/23 09:21:26;;;;;;;0.00;0.00;;;24.70;96.00;;;;;;5052689;28;20231;-63
2023/06/23 09:24:02;;;;;;;0.00;0.00;;;24.50;95.20;;;;;;5052862;28;20185;-63
2023/06/23 09:26:28;;;;;;;0.00;0.00;;;24.40;95.50;;;;;;5052693;28;20696;-63
2023/06/23 09:29:16;;;;;;;0.00;0.00;;;25.00;95.30;;;;;;5052908;28;20247;-64
2023/06/23 09:31:42;;;;;;;0.00;0.00;;;25.90;94.30;;;;;;5052863;28;20181;-64
2023/06/23 09:34:08;;;;;;;0.00;0.00;;;26.50;92.90;;;;;;5052820;28;20178;-63
2023/06/23 09:36:35;;;;;;;0.00;0.00;;;26.20;92.50;;;;;;5052614;28;20173;-64
2023/06/23 09:39:03;;;;;;;0.00;0.00;;;25.70;92.20;;;;;;5052815;28;20887;-64
2023/06/23 09:41:33;;;;;;;0.00;0.00;;;25.10;93.90;;;;;;5052649;28;20192;-63
2023/06/23 09:43:59;;;;;;;0.00;0.00;;;24.60;93.80;;;;;;5052629;28;20185;-63
2023/06/23 09:46:27;;;;;;;0.00;0.00;;;24.60;94.50;;;;;;5052490;28;20192;-63
2023/06/23 09:48:53;;;;;;;0.00;0.00;;;24.90;92.30;;;;;;5041967;28;20193;-64
2023/06/23 09:51:20;;;;;;;0.00;0.00;;;25.50;92.80;;;;;;5033236;28;20630;-64
2023/06/23 09:53:47;;;;;;;0.00;0.00;;;26.20;90.70;;;;;;5047759;28;20196;-63
2023/06/23 09:56:22;;;;;;;0.00;0.00;;;26.80;89.50;;;;;;5032477;28;20269;-63
2023/06/23 09:58:49;;;;;;;0.00;0.00;;;27.10;82.10;;;;;;5032281;28;20184;-64
2023/06/23 10:01:17;;;;;;;0.10;0.10;;;27.10;82.60;;;;;;5032534;28;20181;-63
2023/06/23 10:03:49;;;;;;;0.00;0.00;;;27.10;82.70;;;;;;5032312;28;20174;-64
2023/06/23 10:06:25;;;;;;;0.00;0.00;;;27.00;83.50;;;;;;5032586;28;20206;-63
2023/06/23 10:08:56;;;;;;;0.10;0.10;;;26.80;86.10;;;;;;5032007;28;20193;-63
2023/06/23 10:11:29;;;;;;;0.00;0.00;;;27.00;84.40;;;;;;5032431;28;20193;-63
2023/06/23 10:14:00;;;;;;;0.05;0.05;;;27.50;84.70;;;;;;5032292;28;20542;-63
2023/06/23 10:16:27;;;;;;;0.00;0.00;;;28.10;81.00;;;;;;5032249;28;20216;-64
2023/06/23 10:18:53;;;;;;;0.00;0.00;;;28.70;76.40;;;;;;5031995;28;20609;-63
2023/06/23 10:21:19;;;;;;;0.00;0.00;;;28.60;74.40;;;;;;5032092;28;20178;-63
2023/06/23 10:23:47;;;;;;;0.00;0.00;;;28.10;71.50;;;;;;5032030;28;20182;-63
2023/06/23 10:26:14;;;;;;;0.00;0.00;;;27.50;72.20;;;;;;5031435;28;20210;-63
2023/06/23 10:28:43;;;;;;;0.22;0.10;;;27.30;75.40;;;;;;5031752;28;20246;-63
2023/06/23 10:31:09;;;;;;;0.13;0.13;;;27.10;76.50;;;;;;5031593;28;20661;-64
2023/06/23 10:33:37;;;;;;;0.22;0.22;;;27.10;76.20;;;;;;5031151;28;20649;-63
2023/06/23 10:36:06;;;;;;;0.00;0.00;;;27.50;74.20;;;;;;5031756;28;20216;-63
2023/06/23 10:38:33;;;;;;;0.00;0.00;;;28.10;72.90;;;;;;5031412;28;20645;-64
2023/06/23 10:41:00;;;;;;;0.00;0.00;;;28.30;68.60;;;;;;5031595;28;20182;-63
2023/06/23 10:43:33;;;;;;;0.00;0.00;;;28.60;68.50;;;;;;5031839;28;20182;-63
2023/06/23 10:46:00;;;;;;;0.00;0.00;;;28.40;68.60;;;;;;5031646;28;20190;-63
2023/06/23 10:48:26;;;;;;;0.00;0.00;;;28.10;67.90;;;;;;5031714;28;20201;-64
2023/06/23 10:50:53;;;;;;;0.00;0.00;;;27.90;71.00;;;;;;5031382;28;20182;-64
2023/06/23 10:53:20;;;;;;;0.00;0.00;;;28.10;71.10;;;;;;5041201;28;20269;-63
2023/06/23 10:55:47;;;;;;;0.00;0.00;;;28.10;70.50;;;;;;5031350;28;20170;-63
2023/06/23 10:58:17;;;;;;;0.00;0.00;;;28.30;70.00;;;;;;5031399;28;20268;-63
2023/06/23 11:00:59;;;;;;;0.05;0.05;;;28.70;68.60;;;;;;5031315;28;20603;-63
2023/06/23 11:03:31;;;;;;;0.00;0.00;;;28.90;66.20;;;;;;5031423;28;20170;-63
2023/06/23 11:05:59;;;;;;;0.00;0.00;;;28.60;65.10;;;;;;5031360;28;20660;-63
2023/06/23 11:08:47;;;;;;;0.00;0.00;;;28.50;67.20;;;;;;5031258;28;20226;-63
2023/06/23 11:11:15;;;;;;;0.10;0.10;;;28.80;67.20;;;;;;5030949;28;20544;-63
2023/06/23 11:13:45;;;;;;;0.00;0.00;;;28.80;66.60;;;;;;5031192;28;20527;-63
2023/06/23 11:16:18;;;;;;;0.00;0.00;;;28.80;65.10;;;;;;5031164;28;20320;-63
2023/06/23 11:18:49;;;;;;;0.00;0.00;;;28.70;66.10;;;;;;5031000;28;20185;-63
2023/06/23 11:21:16;;;;;;;0.00;0.00;;;29.00;63.80;;;;;;5030994;28;20177;-64
2023/06/23 11:24:22;;;;;;;0.00;0.00;;;29.20;64.20;;;;;;5030924;28;20189;-63
2023/06/23 11:26:52;;;;;;;0.00;0.00;;;29.30;61.60;;;;;;5030401;28;20261;-63
2023/06/23 11:29:24;;;;;;;0.00;0.00;;;29.60;60.80;;;;;;5031026;28;20170;-63
2023/06/23 11:32:06;;;;;;;0.00;0.00;;;29.80;60.40;;;;;;5030685;28;20197;-63
2023/06/23 11:34:51;;;;;;;0.00;0.00;;;29.70;60.20;;;;;;5030836;28;20173;-63
2023/06/23 11:37:17;;;;;;;0.00;0.00;;;29.60;56.90;;;;;;5030777;28;20261;-63
2023/06/23 11:39:43;;;;;;;0.00;0.00;;;29.20;57.70;;;;;;5030665;28;20626;-62
2023/06/23 11:42:08;;;;;;;0.00;0.00;;;28.90;58.50;;;;;;5030858;28;20185;-63
2023/06/23 11:44:34;;;;;;;0.00;0.00;;;29.00;60.00;;;;;;5033716;28;20178;-63
2023/06/23 11:47:00;;;;;;;0.00;0.00;;;29.30;58.70;;;;;;5035019;28;20222;-63
2023/06/23 11:49:27;;;;;;;0.00;0.00;;;29.60;58.10;;;;;;5034882;28;20522;-63
2023/06/23 11:51:52;;;;;;;0.00;0.00;;;29.90;58.30;;;;;;5034574;28;20523;-63
2023/06/23 11:54:18;;;;;;;0.00;0.00;;;30.20;57.00;;;;;;5050680;28;20189;-62
2023/06/23 11:56:44;;;;;;;0.00;0.00;;;30.50;56.10;;;;;;5054640;28;20582;-63
2023/06/23 11:59:11;;;;;;;0.00;0.00;;;30.70;54.80;;;;;;5054529;28;20264;-63
2023/06/23 12:01:36;;;;;;;0.00;0.00;;;30.70;55.30;;;;;;5054377;28;20633;-63
2023/06/23 12:04:04;;;;;;;0.00;0.00;;;30.50;56.20;;;;;;5054563;28;20184;-63
2023/06/23 12:06:30;;;;;;;0.00;0.00;;;30.40;55.40;;;;;;5054100;28;20640;-63
2023/06/23 12:08:57;;;;;;;0.00;0.00;;;30.40;55.70;;;;;;5054388;28;20178;-63
2023/06/23 12:11:22;;;;;;;0.00;0.00;;;30.20;56.50;;;;;;5054397;28;20176;-63
2023/06/23 12:13:52;;;;;;;0.10;0.10;;;30.20;56.30;;;;;;5054298;28;20165;-63
2023/06/23 12:16:18;;;;;;;0.00;0.00;;;29.90;54.70;;;;;;5054398;28;20181;-63
2023/06/23 12:18:48;;;;;;;0.00;0.00;;;29.50;53.80;;;;;;5053966;28;20172;-63
2023/06/23 12:21:15;;;;;;;0.00;0.00;;;29.20;54.00;;;;;;5054087;28;20182;-63
2023/06/23 12:23:41;;;;;;;0.00;0.00;;;29.10;55.50;;;;;;5053816;28;20635;-63
2023/06/23 12:26:07;;;;;;;0.22;0.22;;;29.10;55.90;;;;;;5053968;28;20259;-63
2023/06/23 12:28:33;;;;;;;0.00;0.00;;;28.90;56.20;;;;;;5053837;28;20782;-63
2023/06/23 12:30:58;;;;;;;0.00;0.00;;;28.80;55.70;;;;;;5054147;28;20177;-63
2023/06/23 12:33:24;;;;;;;0.00;0.00;;;28.80;56.20;;;;;;5054006;28;20219;-63
2023/06/23 12:36:07;;;;;;;0.08;0.00;;;28.90;55.60;;;;;;5053696;28;20656;-63
2023/06/23 12:38:37;;;;;;;0.00;0.00;;;28.90;55.00;;;;;;5053846;28;20248;-63
2023/06/23 12:41:23;;;;;;;0.00;0.00;;;29.00;55.20;;;;;;5053779;28;20186;-63
2023/06/23 12:43:53;;;;;;;0.00;0.00;;;29.00;55.30;;;;;;5053771;28;20162;-63
2023/06/23 12:46:23;;;;;;;0.00;0.00;;;28.70;54.60;;;;;;5053688;28;20204;-63
2023/06/23 12:48:50;;;;;;;0.00;0.00;;;28.60;55.10;;;;;;5053437;28;20676;-63
2023/06/23 12:51:17;;;;;;;0.00;0.00;;;28.40;55.50;;;;;;5053601;28;20224;-63
2023/06/23 12:53:43;;;;;;;0.00;0.00;;;28.50;56.70;;;;;;5046269;28;20277;-63
2023/06/23 12:56:09;;;;;;;0.00;0.00;;;28.50;57.00;;;;;;5052972;28;20189;-63